This is the latest recevied weather packets stored in our database for station/object N0HEQ. If no packets are shown the sender has not sent any weather packets the latest 10 day(s).
| Time | Temp. | Humidity | Pressure | Rain* | Wind** | Luminosity | Snow |
|---|---|---|---|---|---|---|---|
| 1777328623 | 11.11° C | 56% | 1014.6 hPa | 0 mm | - | 98 W/m² | - |
| 1777328321 | 11.11° C | 55% | 1014.7 hPa | 0 mm | - | 89 W/m² | - |
| 1777328019 | 11.67° C | 55% | 1014.4 hPa | 0 mm | - | 78 W/m² | - |
| 1777327718 | 11.67° C | 54% | 1014.7 hPa | 0 mm | - | 106 W/m² | - |
| 1777327414 | 11.67° C | 56% | 1014.6 hPa | 0 mm | - | 197 W/m² | - |
| 1777327112 | 11.11° C | 55% | 1014.4 hPa | 0 mm | - | 153 W/m² | - |
| 1777326808 | 11.67° C | 56% | 1014.4 hPa | 0 mm | - | 126 W/m² | - |
| 1777326506 | 11.67° C | 54% | 1014.3 hPa | 0 mm | - | 217 W/m² | - |
| 1777326203 | 10.56° C | 57% | 1014.4 hPa | 0 mm | - | 230 W/m² | - |
| 1777325901 | 11.11° C | 57% | 1014.6 hPa | 0 mm | - | 235 W/m² | - |
| 1777325599 | 10.56° C | 56% | 1014.7 hPa | 0 mm | - | 216 W/m² | - |
| 1777325296 | 11.67° C | 55% | 1014.3 hPa | 0 mm | - | 211 W/m² | - |
| 1777324994 | 11.67° C | 56% | 1014.6 hPa | 0 mm | - | 280 W/m² | - |
| 1777324690 | 11.67° C | 59% | 1014.3 hPa | 0 mm | - | 312 W/m² | - |
| 1777324388 | 11.11° C | 58% | 1014.9 hPa | 0 mm | - | 172 W/m² | - |
| 1777324086 | 11.11° C | 57% | 1014.6 hPa | 0 mm | - | 238 W/m² | - |
| 1777323783 | 11.67° C | 54% | 1014.6 hPa | 0 mm | - | 223 W/m² | - |
| 1777323480 | 11.67° C | 57% | 1014.7 hPa | 0 mm | - | 274 W/m² | - |
| 1777323177 | 11.11° C | 57% | 1014.3 hPa | 0 mm | - | 861 W/m² | - |
| 1777322875 | 10.56° C | 62% | 1014.7 hPa | 0 mm | - | 277 W/m² | - |
| 1777322573 | 10.56° C | 58% | 1014.7 hPa | 0 mm | - | 306 W/m² | - |
| 1777322270 | 11.11° C | 56% | 1014.7 hPa | 0 mm | - | 396 W/m² | - |
| 1777321967 | 10.56° C | 62% | 1014.6 hPa | 0 mm | - | 620 W/m² | - |
| 1777321664 | 11.11° C | 57% | 1014.8 hPa | 0 mm | - | 210 W/m² | - |
| 1777321360 | 10.56° C | 62% | 1014.9 hPa | 0 mm | - | 403 W/m² | - |
* Rain latest hour (hover to see other rain measurements)
** Current wind speed in m/s (hover to see current wind gust speed)